sensor_id;sensor_type;location;lat;lon;timestamp;temperature;humidity
20315;DHT22;10315;50.958;13.080;2023-04-01T00:09:48;7.70;99.90
20315;DHT22;10315;50.958;13.080;2023-04-01T00:19:56;7.70;99.90
20315;DHT22;10315;50.958;13.080;2023-04-01T00:29:59;7.60;99.90
20315;DHT22;10315;50.958;13.080;2023-04-01T00:40:01;7.70;99.90
20315;DHT22;10315;50.958;13.080;2023-04-01T00:50:07;7.70;99.90
20315;DHT22;10315;50.958;13.080;2023-04-01T01:00:11;7.70;99.90
20315;DHT22;10315;50.958;13.080;2023-04-01T01:10:18;7.60;99.90
20315;DHT22;10315;50.958;13.080;2023-04-01T01:31:10;7.60;99.90
20315;DHT22;10315;50.958;13.080;2023-04-01T01:41:16;7.60;99.90
20315;DHT22;10315;50.958;13.080;2023-04-01T01:51:20;7.60;99.90
20315;DHT22;10315;50.958;13.080;2023-04-01T02:01:25;7.60;99.90
20315;DHT22;10315;50.958;13.080;2023-04-01T02:11:30;7.50;99.90
20315;DHT22;10315;50.958;13.080;2023-04-01T02:21:35;7.50;99.90
20315;DHT22;10315;50.958;13.080;2023-04-01T02:31:38;7.40;99.90
20315;DHT22;10315;50.958;13.080;2023-04-01T02:41:42;7.40;99.90
20315;DHT22;10315;50.958;13.080;2023-04-01T02:51:44;7.50;99.90
20315;DHT22;10315;50.958;13.080;2023-04-01T03:01:47;7.50;99.90
20315;DHT22;10315;50.958;13.080;2023-04-01T03:11:49;7.50;99.90
20315;DHT22;10315;50.958;13.080;2023-04-01T03:21:52;7.40;99.90
20315;DHT22;10315;50.958;13.080;2023-04-01T03:31:53;7.50;99.90
20315;DHT22;10315;50.958;13.080;2023-04-01T03:41:59;7.50;99.90
20315;DHT22;10315;50.958;13.080;2023-04-01T03:52:01;7.60;99.90
20315;DHT22;10315;50.958;13.080;2023-04-01T04:02:03;7.40;99.90
20315;DHT22;10315;50.958;13.080;2023-04-01T04:12:06;7.40;99.90
20315;DHT22;10315;50.958;13.080;2023-04-01T04:22:09;7.30;99.90
20315;DHT22;10315;50.958;13.080;2023-04-01T04:32:10;7.30;99.90
20315;DHT22;10315;50.958;13.080;2023-04-01T04:42:13;7.30;99.90
20315;DHT22;10315;50.958;13.080;2023-04-01T04:52:15;7.30;99.90
20315;DHT22;10315;50.958;13.080;2023-04-01T05:02:18;7.30;99.90
20315;DHT22;10315;50.958;13.080;2023-04-01T05:12:19;7.30;99.90
20315;DHT22;10315;50.958;13.080;2023-04-01T05:22:22;7.30;99.90
20315;DHT22;10315;50.958;13.080;2023-04-01T05:32:24;7.40;99.90
20315;DHT22;10315;50.958;13.080;2023-04-01T05:42:27;7.40;99.90
20315;DHT22;10315;50.958;13.080;2023-04-01T05:52:29;7.50;99.90
20315;DHT22;10315;50.958;13.080;2023-04-01T06:02:32;7.70;99.90
20315;DHT22;10315;50.958;13.080;2023-04-01T06:12:59;7.90;99.90
20315;DHT22;10315;50.958;13.080;2023-04-01T06:23:20;7.80;99.90
20315;DHT22;10315;50.958;13.080;2023-04-01T06:33:39;8.00;99.90
20315;DHT22;10315;50.958;13.080;2023-04-01T06:44:12;8.00;99.90
20315;DHT22;10315;50.958;13.080;2023-04-01T06:54:18;8.30;99.90
20315;DHT22;10315;50.958;13.080;2023-04-01T07:04:26;8.70;99.90
20315;DHT22;10315;50.958;13.080;2023-04-01T07:14:32;8.80;99.90
20315;DHT22;10315;50.958;13.080;2023-04-01T07:24:40;8.70;99.90
20315;DHT22;10315;50.958;13.080;2023-04-01T07:34:53;8.70;99.90
20315;DHT22;10315;50.958;13.080;2023-04-01T07:45:04;8.80;99.90
20315;DHT22;10315;50.958;13.080;2023-04-01T07:55:14;9.00;99.90
20315;DHT22;10315;50.958;13.080;2023-04-01T08:05:25;9.40;99.90
20315;DHT22;10315;50.958;13.080;2023-04-01T08:15:29;9.60;99.90
20315;DHT22;10315;50.958;13.080;2023-04-01T08:25:37;9.70;99.90
20315;DHT22;10315;50.958;13.080;2023-04-01T08:35:45;9.80;99.90
20315;DHT22;10315;50.958;13.080;2023-04-01T08:46:24;9.70;99.90
20315;DHT22;10315;50.958;13.080;2023-04-01T08:56:33;9.90;99.90
20315;DHT22;10315;50.958;13.080;2023-04-01T09:06:44;9.90;99.90
20315;DHT22;10315;50.958;13.080;2023-04-01T09:17:17;9.90;99.90
20315;DHT22;10315;50.958;13.080;2023-04-01T09:27:28;10.10;99.90
20315;DHT22;10315;50.958;13.080;2023-04-01T09:37:35;10.20;99.90
20315;DHT22;10315;50.958;13.080;2023-04-01T09:47:55;10.50;99.90
20315;DHT22;10315;50.958;13.080;2023-04-01T10:09:02;10.20;99.90
20315;DHT22;10315;50.958;13.080;2023-04-01T10:30:13;9.90;99.90
20315;DHT22;10315;50.958;13.080;2023-04-01T10:40:33;10.10;99.90
20315;DHT22;10315;50.958;13.080;2023-04-01T10:50:59;9.90;99.90
20315;DHT22;10315;50.958;13.080;2023-04-01T11:01:17;10.50;99.90
20315;DHT22;10315;50.958;13.080;2023-04-01T11:11:47;10.90;99.90
20315;DHT22;10315;50.958;13.080;2023-04-01T11:32:43;10.70;99.90
20315;DHT22;10315;50.958;13.080;2023-04-01T11:42:51;11.40;99.90
20315;DHT22;10315;50.958;13.080;2023-04-01T11:53:05;12.50;99.90
20315;DHT22;10315;50.958;13.080;2023-04-01T12:03:27;11.80;99.90
20315;DHT22;10315;50.958;13.080;2023-04-01T12:13:40;11.90;99.90
20315;DHT22;10315;50.958;13.080;2023-04-01T12:23:58;11.90;99.90
20315;DHT22;10315;50.958;13.080;2023-04-01T12:34:27;12.30;99.90
20315;DHT22;10315;50.958;13.080;2023-04-01T12:44:47;11.70;99.90
20315;DHT22;10315;50.958;13.080;2023-04-01T12:55:18;12.20;99.90
20315;DHT22;10315;50.958;13.080;2023-04-01T13:16:07;11.30;99.90
20315;DHT22;10315;50.958;13.080;2023-04-01T13:26:19;11.20;99.90
20315;DHT22;10315;50.958;13.080;2023-04-01T13:36:31;10.30;99.90
20315;DHT22;10315;50.958;13.080;2023-04-01T13:46:48;9.90;99.90
20315;DHT22;10315;50.958;13.080;2023-04-01T13:57:09;9.80;99.90
20315;DHT22;10315;50.958;13.080;2023-04-01T14:07:32;9.80;99.90
20315;DHT22;10315;50.958;13.080;2023-04-01T14:17:53;9.90;99.90
20315;DHT22;10315;50.958;13.080;2023-04-01T14:28:07;10.50;99.90
20315;DHT22;10315;50.958;13.080;2023-04-01T14:38:27;10.60;99.90
20315;DHT22;10315;50.958;13.080;2023-04-01T14:48:32;10.50;99.90
20315;DHT22;10315;50.958;13.080;2023-04-01T14:58:45;10.60;99.90
20315;DHT22;10315;50.958;13.080;2023-04-01T15:08:51;10.70;99.90
20315;DHT22;10315;50.958;13.080;2023-04-01T15:19:04;10.50;99.90
20315;DHT22;10315;50.958;13.080;2023-04-01T15:29:22;10.50;99.90
20315;DHT22;10315;50.958;13.080;2023-04-01T15:39:42;10.80;99.90
20315;DHT22;10315;50.958;13.080;2023-04-01T15:49:50;10.30;99.90
20315;DHT22;10315;50.958;13.080;2023-04-01T16:00:06;10.20;99.90
20315;DHT22;10315;50.958;13.080;2023-04-01T16:10:38;10.20;99.90
20315;DHT22;10315;50.958;13.080;2023-04-01T16:20:53;10.10;99.90
20315;DHT22;10315;50.958;13.080;2023-04-01T16:31:00;10.10;99.90
20315;DHT22;10315;50.958;13.080;2023-04-01T16:41:16;10.20;99.90
20315;DHT22;10315;50.958;13.080;2023-04-01T16:51:19;10.10;99.90
20315;DHT22;10315;50.958;13.080;2023-04-01T17:01:27;10.10;99.90
20315;DHT22;10315;50.958;13.080;2023-04-01T17:11:39;10.00;99.90
20315;DHT22;10315;50.958;13.080;2023-04-01T17:21:57;9.90;99.90
20315;DHT22;10315;50.958;13.080;2023-04-01T17:32:07;9.70;99.90
20315;DHT22;10315;50.958;13.080;2023-04-01T17:42:15;9.50;99.90
20315;DHT22;10315;50.958;13.080;2023-04-01T17:52:24;9.30;99.90
20315;DHT22;10315;50.958;13.080;2023-04-01T18:02:38;9.20;99.90
20315;DHT22;10315;50.958;13.080;2023-04-01T18:13:09;9.10;99.90
20315;DHT22;10315;50.958;13.080;2023-04-01T18:23:27;9.00;99.90
20315;DHT22;10315;50.958;13.080;2023-04-01T18:33:34;8.90;99.90
20315;DHT22;10315;50.958;13.080;2023-04-01T18:43:46;8.70;99.90
20315;DHT22;10315;50.958;13.080;2023-04-01T18:53:58;8.70;99.90
20315;DHT22;10315;50.958;13.080;2023-04-01T19:04:11;8.50;99.90
20315;DHT22;10315;50.958;13.080;2023-04-01T19:14:30;8.70;99.90
20315;DHT22;10315;50.958;13.080;2023-04-01T19:35:09;8.60;99.90
20315;DHT22;10315;50.958;13.080;2023-04-01T19:45:25;8.70;99.90
20315;DHT22;10315;50.958;13.080;2023-04-01T19:55:35;8.60;99.90
20315;DHT22;10315;50.958;13.080;2023-04-01T20:05:56;8.50;99.90
20315;DHT22;10315;50.958;13.080;2023-04-01T20:16:04;8.40;99.90
20315;DHT22;10315;50.958;13.080;2023-04-01T20:26:11;8.30;99.90
20315;DHT22;10315;50.958;13.080;2023-04-01T20:36:18;8.30;99.90
20315;DHT22;10315;50.958;13.080;2023-04-01T20:46:23;8.30;99.90
20315;DHT22;10315;50.958;13.080;2023-04-01T20:56:42;8.20;99.90
20315;DHT22;10315;50.958;13.080;2023-04-01T21:07:13;8.00;99.90
20315;DHT22;10315;50.958;13.080;2023-04-01T21:17:31;8.00;99.90
20315;DHT22;10315;50.958;13.080;2023-04-01T21:27:42;7.90;99.90
20315;DHT22;10315;50.958;13.080;2023-04-01T21:38:26;7.70;99.90
20315;DHT22;10315;50.958;13.080;2023-04-01T21:48:52;7.70;99.90
20315;DHT22;10315;50.958;13.080;2023-04-01T22:09:39;7.60;99.90
20315;DHT22;10315;50.958;13.080;2023-04-01T22:20:10;7.70;99.90
20315;DHT22;10315;50.958;13.080;2023-04-01T22:30:22;7.90;99.90
20315;DHT22;10315;50.958;13.080;2023-04-01T22:40:33;7.80;99.90
20315;DHT22;10315;50.958;13.080;2023-04-01T22:50:39;7.70;99.90
20315;DHT22;10315;50.958;13.080;2023-04-01T23:00:45;7.60;99.90
20315;DHT22;10315;50.958;13.080;2023-04-01T23:10:50;7.50;99.90
20315;DHT22;10315;50.958;13.080;2023-04-01T23:21:06;7.40;99.90
20315;DHT22;10315;50.958;13.080;2023-04-01T23:31:40;7.20;99.90
20315;DHT22;10315;50.958;13.080;2023-04-01T23:41:47;7.10;99.90
20315;DHT22;10315;50.958;13.080;2023-04-01T23:51:55;6.80;99.90
